createdAt,value
2018-02-03T00:01:36.694Z,3.13
2018-02-03T00:04:04.242Z,2.93
2018-02-03T00:06:31.861Z,3.13
2018-02-03T00:08:59.445Z,2.80
2018-02-03T00:11:27.058Z,3.33
2018-02-03T00:13:54.661Z,3.50
2018-02-03T00:16:22.210Z,3.30
2018-02-03T00:18:49.809Z,4.17
2018-02-03T00:21:17.362Z,4.23
2018-02-03T00:23:44.942Z,4.03
2018-02-03T00:26:12.573Z,4.70
2018-02-03T00:28:40.451Z,4.23
2018-02-03T00:31:08.024Z,4.07
2018-02-03T00:33:35.610Z,4.77
2018-02-03T00:36:03.404Z,4.37
2018-02-03T00:38:31.002Z,5.07
2018-02-03T00:40:58.552Z,5.00
2018-02-03T00:43:26.183Z,5.00
2018-02-03T00:45:53.777Z,5.13
2018-02-03T00:48:21.367Z,5.30
2018-02-03T00:50:49.325Z,5.27
2018-02-03T00:53:16.940Z,5.43
2018-02-03T00:55:44.521Z,5.73
2018-02-03T00:58:12.137Z,5.97
2018-02-03T01:00:39.707Z,5.47
2018-02-03T01:03:07.257Z,5.90
2018-02-03T01:05:34.841Z,5.80
2018-02-03T01:08:02.422Z,6.07
2018-02-03T01:10:30.020Z,5.80
2018-02-03T01:12:57.597Z,5.87
2018-02-03T01:15:25.234Z,5.17
2018-02-03T01:17:53.238Z,4.80
2018-02-03T01:20:20.774Z,5.57
2018-02-03T01:22:48.422Z,5.10
2018-02-03T01:25:16.011Z,5.40
2018-02-03T01:27:43.722Z,5.20
2018-02-03T01:30:11.681Z,4.80
2018-02-03T01:32:39.269Z,5.13
2018-02-03T01:35:06.890Z,5.10
2018-02-03T01:37:34.454Z,5.03
2018-02-03T01:40:02.058Z,4.80
2018-02-03T01:42:29.681Z,4.47
2018-02-03T01:44:57.268Z,4.17
2018-02-03T01:47:24.821Z,4.40
2018-02-03T01:49:52.414Z,4.53
2018-02-03T01:52:19.965Z,4.67
2018-02-03T01:54:47.561Z,3.90
2018-02-03T01:57:15.125Z,4.73
2018-02-03T01:59:42.734Z,4.30
2018-02-03T02:02:10.330Z,4.20
2018-02-03T02:04:37.946Z,4.00
2018-02-03T02:07:05.524Z,4.23
2018-02-03T02:09:33.105Z,4.10
2018-02-03T02:12:00.665Z,3.47
2018-02-03T02:14:28.275Z,3.90
2018-02-03T02:16:55.874Z,3.70
2018-02-03T02:19:23.494Z,4.27
2018-02-03T02:21:51.071Z,4.13
2018-02-03T02:24:18.642Z,4.07
2018-02-03T02:26:46.402Z,3.97
2018-02-03T02:29:13.973Z,3.80
2018-02-03T02:31:41.615Z,3.80
2018-02-03T02:34:09.380Z,3.60
2018-02-03T02:36:36.988Z,3.80
2018-02-03T02:39:04.585Z,3.17
2018-02-03T02:41:32.134Z,3.37
2018-02-03T02:43:59.776Z,3.50
2018-02-03T02:46:27.338Z,4.00
2018-02-03T02:48:54.948Z,4.07
2018-02-03T02:51:22.552Z,3.90
2018-02-03T02:53:50.132Z,4.17
2018-02-03T02:56:17.731Z,4.03
2018-02-03T02:58:45.284Z,4.20
2018-02-03T03:01:12.937Z,4.47
2018-02-03T03:03:40.528Z,4.60
2018-02-03T03:06:08.145Z,4.37
2018-02-03T03:08:35.796Z,4.63
2018-02-03T03:11:03.398Z,3.97
2018-02-03T03:13:31.048Z,4.30
2018-02-03T03:15:58.658Z,3.80
2018-02-03T03:18:26.811Z,4.47
2018-02-03T03:20:54.433Z,4.80
2018-02-03T03:23:22.049Z,4.60
2018-02-03T03:25:49.647Z,5.00
2018-02-03T03:28:17.214Z,4.73
2018-02-03T03:30:44.849Z,4.60
2018-02-03T03:33:12.412Z,5.57
2018-02-03T03:35:40.011Z,5.60
2018-02-03T03:38:07.571Z,5.37
2018-02-03T03:40:35.224Z,5.53
2018-02-03T03:43:02.796Z,5.60
2018-02-03T03:45:30.586Z,5.10
2018-02-03T03:47:58.177Z,5.53
2018-02-03T03:50:25.784Z,5.30
2018-02-03T03:52:53.362Z,5.13
2018-02-03T03:55:20.962Z,5.17
2018-02-03T03:57:48.580Z,5.60
2018-02-03T04:00:16.206Z,6.00
2018-02-03T04:02:43.816Z,5.07
2018-02-03T04:05:11.375Z,5.47
2018-02-03T04:07:38.988Z,6.00
2018-02-03T04:10:06.587Z,5.90
2018-02-03T04:12:34.174Z,5.77
2018-02-03T04:15:01.732Z,4.90
2018-02-03T04:17:29.330Z,5.97
2018-02-03T04:19:57.102Z,5.70
2018-02-03T04:22:24.709Z,6.47
2018-02-03T04:24:53.641Z,5.60
2018-02-03T04:27:21.962Z,5.70
2018-02-03T04:29:49.602Z,6.17
2018-02-03T04:32:17.208Z,6.80
2018-02-03T04:34:44.783Z,7.60
2018-02-03T04:37:12.787Z,7.17
2018-02-03T04:39:40.413Z,7.57
2018-02-03T04:42:08.040Z,7.33
2018-02-03T04:44:35.616Z,7.23
2018-02-03T04:47:03.227Z,7.47
2018-02-03T04:49:30.774Z,7.27
2018-02-03T04:51:58.380Z,7.00
2018-02-03T04:54:25.948Z,7.57
2018-02-03T04:56:53.556Z,7.43
2018-02-03T04:59:21.171Z,7.67
2018-02-03T05:01:48.759Z,6.63
2018-02-03T05:04:16.327Z,7.17
2018-02-03T05:06:43.928Z,7.13
2018-02-03T05:09:11.492Z,6.40
2018-02-03T05:11:39.071Z,6.83
2018-02-03T05:14:07.202Z,5.63
2018-02-03T05:16:35.013Z,5.90
2018-02-03T05:19:02.619Z,6.60
2018-02-03T05:21:30.257Z,6.10
2018-02-03T05:23:57.860Z,6.70
2018-02-03T05:26:25.447Z,7.10
2018-02-03T05:28:53.163Z,7.17
2018-02-03T05:31:21.030Z,7.17
2018-02-03T05:33:48.611Z,6.97
2018-02-03T05:36:16.176Z,6.30
2018-02-03T05:38:43.804Z,6.33
2018-02-03T05:41:11.403Z,6.53
2018-02-03T05:43:39.481Z,7.17
2018-02-03T05:46:07.081Z,8.23
2018-02-03T05:48:34.690Z,7.23
2018-02-03T05:51:02.342Z,7.47
2018-02-03T05:53:29.928Z,8.40
2018-02-03T05:55:57.689Z,7.47
2018-02-03T05:58:25.314Z,7.50
2018-02-03T06:00:52.916Z,8.30
2018-02-03T06:03:20.525Z,8.27
2018-02-03T06:05:48.148Z,8.83
2018-02-03T06:08:15.746Z,7.57
2018-02-03T06:10:43.304Z,6.70
2018-02-03T06:13:10.952Z,6.47
2018-02-03T06:15:38.533Z,7.10
2018-02-03T06:18:06.116Z,7.27
2018-02-03T06:20:33.741Z,7.63
2018-02-03T06:23:01.383Z,7.40
2018-02-03T06:25:28.984Z,6.70
2018-02-03T06:27:56.587Z,8.17
2018-02-03T06:30:24.144Z,7.07
2018-02-03T06:32:51.738Z,6.37
2018-02-03T06:35:19.301Z,6.30
2018-02-03T06:37:46.911Z,6.60
2018-02-03T06:40:14.516Z,5.93
2018-02-03T06:42:42.156Z,6.40
2018-02-03T06:45:09.743Z,6.37
2018-02-03T06:47:37.816Z,5.97
2018-02-03T06:50:05.429Z,6.03
2018-02-03T06:52:33.015Z,6.40
2018-02-03T06:55:00.645Z,5.20
2018-02-03T06:57:28.223Z,5.40
2018-02-03T06:59:56.084Z,5.50
2018-02-03T07:02:23.668Z,5.07
2018-02-03T07:04:51.351Z,4.90
2018-02-03T07:07:18.914Z,5.27
2018-02-03T07:09:47.135Z,5.43
2018-02-03T07:12:14.784Z,4.73
2018-02-03T07:14:42.671Z,5.23
2018-02-03T07:17:10.645Z,5.60
2018-02-03T07:19:38.244Z,6.73
2018-02-03T07:22:05.804Z,6.30
2018-02-03T07:24:33.600Z,6.77
2018-02-03T07:27:01.372Z,6.70
2018-02-03T07:29:28.970Z,6.20
2018-02-03T07:31:56.542Z,6.47
2018-02-03T07:34:25.787Z,6.47
2018-02-03T07:36:53.432Z,6.03
2018-02-03T07:39:21.031Z,6.20
2018-02-03T07:41:49.077Z,6.83
2018-02-03T07:44:16.743Z,6.70
2018-02-03T07:46:44.326Z,6.87
2018-02-03T07:49:12.261Z,7.03
2018-02-03T07:51:40.743Z,6.87
2018-02-03T07:54:08.385Z,6.30
2018-02-03T07:56:36.016Z,6.87
2018-02-03T07:59:03.602Z,6.47
2018-02-03T08:01:31.192Z,6.53
2018-02-03T08:03:58.939Z,6.53
2018-02-03T08:06:26.531Z,6.30
2018-02-03T08:08:54.123Z,5.67
2018-02-03T08:11:21.746Z,6.07
2018-02-03T08:13:49.375Z,5.97
2018-02-03T08:16:16.968Z,6.03
2018-02-03T08:18:44.817Z,5.93
2018-02-03T08:21:12.404Z,5.40
2018-02-03T08:23:40.472Z,5.70
2018-02-03T08:26:08.107Z,4.80
2018-02-03T08:28:35.730Z,4.77
2018-02-03T08:31:03.347Z,4.90
2018-02-03T08:33:30.916Z,4.33
2018-02-03T08:35:58.516Z,4.63
2018-02-03T08:38:26.149Z,4.07
2018-02-03T08:40:53.744Z,4.93
2018-02-03T08:43:21.340Z,4.67
2018-02-03T08:45:48.952Z,3.87
2018-02-03T08:48:16.505Z,3.87
2018-02-03T08:50:44.104Z,3.60
2018-02-03T08:53:12.556Z,3.87
2018-02-03T08:55:40.175Z,4.10
2018-02-03T08:58:07.783Z,3.80
2018-02-03T09:00:35.385Z,3.53
2018-02-03T09:03:02.990Z,3.83
2018-02-03T09:05:31.980Z,3.50
2018-02-03T09:07:59.586Z,3.93
2018-02-03T09:10:27.175Z,4.03
2018-02-03T09:12:54.970Z,4.03
2018-02-03T09:15:22.524Z,4.13
2018-02-03T09:17:50.137Z,4.03
2018-02-03T09:20:17.749Z,3.83
2018-02-03T09:22:45.370Z,3.30
2018-02-03T09:25:12.960Z,3.17
2018-02-03T09:27:40.554Z,3.17
2018-02-03T09:30:08.137Z,3.33
2018-02-03T09:32:35.779Z,3.10
2018-02-03T09:35:03.808Z,3.23
2018-02-03T09:37:31.412Z,2.90
2018-02-03T09:39:59.061Z,2.90
2018-02-03T09:42:26.655Z,3.00
2018-02-03T09:44:54.289Z,3.20
2018-02-03T09:47:22.337Z,3.10
2018-02-03T09:49:49.913Z,3.30
2018-02-03T09:52:17.548Z,4.00
2018-02-03T09:54:45.124Z,3.57
2018-02-03T09:57:12.745Z,3.37
2018-02-03T09:59:40.309Z,3.50
2018-02-03T10:02:07.900Z,3.73
2018-02-03T10:04:35.704Z,4.30
2018-02-03T10:07:03.293Z,4.27
2018-02-03T10:09:30.871Z,4.13
2018-02-03T10:11:58.423Z,4.13
2018-02-03T10:14:26.062Z,4.10
2018-02-03T10:16:53.664Z,4.30
2018-02-03T10:19:21.797Z,4.37
2018-02-03T10:21:50.482Z,4.50
2018-02-03T10:24:18.075Z,4.93
2018-02-03T10:26:45.692Z,5.10
2018-02-03T10:29:13.358Z,4.67
2018-02-03T10:31:40.911Z,5.37
2018-02-03T10:34:08.532Z,4.87
2018-02-03T10:36:36.149Z,5.13
2018-02-03T10:39:03.840Z,5.10
2018-02-03T10:41:31.639Z,5.33
2018-02-03T10:43:59.261Z,5.77
2018-02-03T10:46:27.072Z,5.73
2018-02-03T10:48:54.661Z,6.03
2018-02-03T10:51:22.229Z,5.90
2018-02-03T10:53:50.374Z,6.03
2018-02-03T10:56:18.227Z,7.30
2018-02-03T10:58:45.875Z,5.93
2018-02-03T11:01:13.765Z,5.77
2018-02-03T11:03:41.544Z,5.63
2018-02-03T11:06:09.916Z,6.03
2018-02-03T11:08:38.149Z,6.23
2018-02-03T11:11:06.046Z,6.10
2018-02-03T11:13:33.644Z,7.13
2018-02-03T11:16:01.482Z,6.57
2018-02-03T11:18:29.229Z,6.83
2018-02-03T11:20:57.196Z,7.40
2018-02-03T11:23:25.512Z,7.00
2018-02-03T11:25:53.438Z,7.83
2018-02-03T11:28:21.028Z,7.70
2018-02-03T11:30:48.759Z,7.87
2018-02-03T11:33:16.686Z,6.73
2018-02-03T11:35:44.475Z,7.50
2018-02-03T11:38:12.322Z,7.77
2018-02-03T11:40:40.166Z,8.03
2018-02-03T11:43:08.363Z,7.40
2018-02-03T11:45:37.009Z,7.70
2018-02-03T11:48:04.684Z,6.87
2018-02-03T11:50:32.328Z,7.93
2018-02-03T11:52:59.996Z,7.10
2018-02-03T11:55:27.647Z,8.17
2018-02-03T11:57:55.293Z,7.20
2018-02-03T12:00:22.953Z,7.73
2018-02-03T12:02:50.917Z,8.17
2018-02-03T12:05:18.558Z,7.57
2018-02-03T12:07:46.113Z,8.50
2018-02-03T12:10:13.711Z,8.17
2018-02-03T12:12:41.876Z,7.30
2018-02-03T12:15:11.608Z,8.03
2018-02-03T12:17:44.940Z,7.77
2018-02-03T12:20:15.589Z,6.43
2018-02-03T12:22:44.675Z,8.00
2018-02-03T12:25:16.876Z,7.57
2018-02-03T12:27:44.436Z,7.93
2018-02-03T12:30:12.042Z,7.53
2018-02-03T12:32:39.661Z,6.90
2018-02-03T12:35:07.293Z,7.17
2018-02-03T12:37:34.918Z,8.20
2018-02-03T12:40:02.544Z,7.40
2018-02-03T12:42:30.178Z,7.77
2018-02-03T12:44:57.864Z,7.20
2018-02-03T12:47:25.490Z,7.20
2018-02-03T12:49:53.281Z,7.53
2018-02-03T12:52:20.872Z,6.83
2018-02-03T12:54:48.492Z,6.10
2018-02-03T12:57:21.180Z,5.67
2018-02-03T12:59:48.841Z,5.07
2018-02-03T13:02:16.469Z,6.30
2018-02-03T13:04:44.629Z,5.37
2018-02-03T13:07:12.397Z,5.27
2018-02-03T13:09:40.083Z,5.63
2018-02-03T13:12:08.254Z,4.80
2018-02-03T13:14:35.847Z,5.47
2018-02-03T13:17:03.479Z,4.90
2018-02-03T13:19:31.113Z,5.70
2018-02-03T13:21:58.773Z,5.00
2018-02-03T13:24:26.431Z,4.40
2018-02-03T13:26:54.035Z,4.00
2018-02-03T13:29:21.633Z,4.20
2018-02-03T13:31:49.239Z,4.20
2018-02-03T13:34:16.791Z,4.33
2018-02-03T13:36:44.448Z,5.43
2018-02-03T13:39:12.074Z,5.40
2018-02-03T13:41:39.660Z,5.47
2018-02-03T13:44:07.233Z,5.53
2018-02-03T13:46:34.803Z,5.97
2018-02-03T13:49:02.380Z,5.07
2018-02-03T13:51:30.011Z,4.40
2018-02-03T13:53:57.593Z,4.50
2018-02-03T13:56:25.257Z,4.67
2018-02-03T13:58:53.064Z,4.60
2018-02-03T14:01:20.664Z,4.43
2018-02-03T14:03:48.260Z,4.93
2018-02-03T14:06:15.876Z,4.33
2018-02-03T14:08:43.450Z,3.73
2018-02-03T14:11:11.361Z,3.60
2018-02-03T14:13:38.942Z,3.63
2018-02-03T14:16:06.531Z,3.57
2018-02-03T14:18:34.652Z,3.50
2018-02-03T14:21:02.213Z,3.57
2018-02-03T14:23:29.813Z,3.63
2018-02-03T14:26:18.299Z,3.83
2018-02-03T14:28:45.892Z,3.77
2018-02-03T14:31:13.827Z,4.17
2018-02-03T14:33:41.430Z,3.80
2018-02-03T14:36:08.998Z,3.90
2018-02-03T14:38:36.588Z,3.80
2018-02-03T14:41:04.209Z,3.90
2018-02-03T14:43:32.151Z,4.63
2018-02-03T14:45:59.736Z,3.80
2018-02-03T14:48:27.337Z,3.80
2018-02-03T14:50:54.900Z,4.00
2018-02-03T14:53:22.532Z,3.83
2018-02-03T14:55:50.503Z,4.07
2018-02-03T14:58:18.110Z,4.33
2018-02-03T15:00:45.668Z,4.30
2018-02-03T15:03:13.255Z,4.77
2018-02-03T15:05:40.859Z,4.20
2018-02-03T15:08:08.478Z,4.47
2018-02-03T15:10:36.102Z,4.43
2018-02-03T15:13:03.980Z,4.30
2018-02-03T15:15:32.153Z,4.33
2018-02-03T15:17:59.727Z,4.60
2018-02-03T15:20:27.380Z,4.07
2018-02-03T15:22:54.999Z,4.90
2018-02-03T15:25:22.648Z,4.47
2018-02-03T15:27:50.282Z,4.33
2018-02-03T15:30:17.898Z,4.63
2018-02-03T15:32:45.476Z,4.50
2018-02-03T15:35:13.104Z,4.53
2018-02-03T15:37:40.690Z,4.60
2018-02-03T15:40:08.320Z,4.73
2018-02-03T15:42:35.904Z,4.70
2018-02-03T15:45:03.528Z,5.20
2018-02-03T15:47:31.090Z,5.03
2018-02-03T15:49:58.671Z,5.00
2018-02-03T15:52:26.273Z,4.80
2018-02-03T15:54:54.301Z,4.97
2018-02-03T15:57:21.874Z,4.77
2018-02-03T15:59:49.519Z,5.70
2018-02-03T16:02:17.124Z,5.70
2018-02-03T16:04:44.769Z,4.90
2018-02-03T16:07:12.385Z,5.07
2018-02-03T16:09:39.964Z,4.47
2018-02-03T16:12:07.551Z,4.80
2018-02-03T16:14:35.160Z,4.93
2018-02-03T16:17:02.726Z,5.20
2018-02-03T16:19:30.366Z,5.30
2018-02-03T16:21:57.986Z,5.40
2018-02-03T16:24:25.608Z,5.13
2018-02-03T16:26:53.186Z,5.23
2018-02-03T16:29:20.816Z,5.90
2018-02-03T16:31:48.373Z,5.53
2018-02-03T16:34:16.008Z,5.67
2018-02-03T16:36:43.608Z,5.70
2018-02-03T16:39:11.209Z,6.37
2018-02-03T16:41:38.827Z,6.17
2018-02-03T16:44:06.424Z,5.93
2018-02-03T16:46:34.006Z,6.57
2018-02-03T16:49:02.657Z,6.20
2018-02-03T16:51:30.223Z,5.60
2018-02-03T16:53:57.824Z,6.37
2018-02-03T16:56:37.356Z,6.13
2018-02-03T16:59:04.960Z,5.43
2018-02-03T17:01:32.609Z,5.93
2018-02-03T17:04:00.233Z,6.33
2018-02-03T17:06:28.015Z,6.70
2018-02-03T17:08:55.592Z,6.40
2018-02-03T17:11:23.196Z,6.33
2018-02-03T17:13:50.793Z,5.93
2018-02-03T17:16:18.395Z,5.43
2018-02-03T17:18:46.024Z,5.63
2018-02-03T17:21:13.653Z,5.53
2018-02-03T17:23:41.230Z,7.17
2018-02-03T17:26:08.824Z,7.63
2018-02-03T17:28:36.453Z,8.90
2018-02-03T17:31:04.074Z,10.67
2018-02-03T17:33:31.655Z,7.13
2018-02-03T17:35:59.260Z,5.33
2018-02-03T17:38:32.463Z,5.40
2018-02-03T17:41:00.482Z,4.83
2018-02-03T17:43:28.302Z,6.70
2018-02-03T17:46:01.566Z,6.73
2018-02-03T17:48:29.118Z,6.50
2018-02-03T17:50:58.224Z,7.00
2018-02-03T17:53:25.836Z,6.40
2018-02-03T17:55:59.044Z,5.70
2018-02-03T17:58:26.805Z,6.20
2018-02-03T18:00:54.408Z,6.43
2018-02-03T18:03:22.010Z,5.30
2018-02-03T18:05:49.589Z,6.43
2018-02-03T18:08:17.155Z,6.50
2018-02-03T18:10:44.988Z,5.80
2018-02-03T18:13:12.663Z,5.40
2018-02-03T18:15:40.254Z,5.77
2018-02-03T18:18:07.881Z,6.00
2018-02-03T18:20:35.466Z,6.53
2018-02-03T18:23:03.087Z,5.30
2018-02-03T18:25:30.630Z,6.20
2018-02-03T18:27:58.233Z,6.30
2018-02-03T18:30:25.787Z,6.40
2018-02-03T18:32:53.412Z,6.57
2018-02-03T18:35:21.020Z,5.67
2018-02-03T18:37:48.641Z,5.53
2018-02-03T18:40:16.250Z,6.40
2018-02-03T18:42:43.847Z,5.90
2018-02-03T18:45:23.136Z,6.53
2018-02-03T18:47:50.733Z,6.77
2018-02-03T18:50:18.329Z,7.10
2018-02-03T18:52:45.980Z,6.70
2018-02-03T18:55:13.576Z,7.47
2018-02-03T18:57:41.203Z,6.63
2018-02-03T19:00:08.787Z,7.27
2018-02-03T19:02:36.420Z,6.47
2018-02-03T19:05:04.060Z,7.07
2018-02-03T19:07:31.657Z,6.37
2018-02-03T19:09:59.225Z,6.47
2018-02-03T19:12:26.836Z,6.97
2018-02-03T19:14:54.436Z,7.43
2018-02-03T19:17:22.008Z,6.07
2018-02-03T19:19:49.602Z,6.53
2018-02-03T19:22:17.290Z,5.70
2018-02-03T19:24:44.898Z,5.77
2018-02-03T19:27:12.508Z,5.73
2018-02-03T19:29:40.098Z,5.70
2018-02-03T19:32:07.702Z,5.83
2018-02-03T19:34:35.292Z,6.00
2018-02-03T19:37:02.917Z,6.07
2018-02-03T19:39:30.510Z,5.90
2018-02-03T19:41:58.142Z,6.20
2018-02-03T19:44:25.770Z,6.30
2018-02-03T19:46:53.352Z,6.13
2018-02-03T19:49:20.947Z,5.80
2018-02-03T19:51:48.606Z,5.50
2018-02-03T19:54:16.214Z,5.27
2018-02-03T19:56:43.820Z,6.03
2018-02-03T19:59:11.476Z,5.90
2018-02-03T20:01:39.037Z,6.00
2018-02-03T20:04:06.648Z,5.37
2018-02-03T20:06:34.276Z,5.70
2018-02-03T20:09:01.915Z,5.90
2018-02-03T20:11:29.595Z,5.00
2018-02-03T20:13:57.180Z,5.87
2018-02-03T20:16:24.776Z,5.37
2018-02-03T20:18:52.434Z,6.00
2018-02-03T20:21:20.094Z,5.37
2018-02-03T20:23:47.703Z,5.40
2018-02-03T20:26:15.369Z,5.13
2018-02-03T20:28:43.032Z,6.13
2018-02-03T20:31:10.638Z,6.20
2018-02-03T20:33:38.237Z,6.17
2018-02-03T20:36:05.836Z,5.50
2018-02-03T20:38:33.412Z,4.47
2018-02-03T20:41:01.033Z,4.87
2018-02-03T20:43:28.708Z,4.83
2018-02-03T20:45:56.342Z,5.27
2018-02-03T20:48:24.037Z,5.63
2018-02-03T20:50:51.658Z,4.37
2018-02-03T20:53:19.288Z,5.27
2018-02-03T20:55:46.886Z,5.07
2018-02-03T20:58:14.534Z,4.40
2018-02-03T21:00:42.416Z,4.60
2018-02-03T21:03:10.064Z,5.47
2018-02-03T21:05:38.269Z,5.77
2018-02-03T21:08:06.262Z,7.10
2018-02-03T21:10:33.896Z,5.20
2018-02-03T21:13:01.501Z,4.80
2018-02-03T21:15:29.089Z,4.47
2018-02-03T21:17:56.671Z,4.70
2018-02-03T21:20:24.342Z,4.23
2018-02-03T21:22:51.957Z,4.57
2018-02-03T21:25:19.572Z,4.97
2018-02-03T21:27:47.230Z,5.00
2018-02-03T21:30:14.868Z,5.00
2018-02-03T21:32:42.488Z,5.57
2018-02-03T21:35:10.199Z,4.40
2018-02-03T21:37:38.185Z,4.93
2018-02-03T21:40:05.848Z,5.27
2018-02-03T21:42:33.412Z,5.67
2018-02-03T21:45:01.092Z,5.43
2018-02-03T21:47:28.654Z,5.50
2018-02-03T21:49:56.247Z,5.00
2018-02-03T21:52:23.887Z,5.10
2018-02-03T21:54:51.546Z,5.80
2018-02-03T21:57:19.205Z,5.47
2018-02-03T21:59:46.808Z,5.43
2018-02-03T22:02:14.379Z,6.40
2018-02-03T22:04:42.053Z,6.07
2018-02-03T22:07:09.693Z,6.77
2018-02-03T22:09:37.362Z,6.40
2018-02-03T22:12:05.010Z,6.77
2018-02-03T22:14:32.609Z,7.30
2018-02-03T22:17:00.232Z,7.87
2018-02-03T22:19:28.539Z,7.83
2018-02-03T22:21:56.217Z,7.47
2018-02-03T22:24:23.952Z,8.10
2018-02-03T22:26:51.634Z,8.77
2018-02-03T22:29:19.266Z,7.10
2018-02-03T22:31:48.980Z,7.70
2018-02-03T22:34:17.050Z,7.73
2018-02-03T22:36:45.144Z,8.13
2018-02-03T22:39:13.784Z,8.20
2018-02-03T22:41:41.780Z,7.23
2018-02-03T22:44:09.340Z,8.17
2018-02-03T22:46:37.115Z,8.37
2018-02-03T22:49:04.766Z,8.40
2018-02-03T22:51:32.478Z,7.57
2018-02-03T22:54:00.668Z,8.33
2018-02-03T22:56:28.279Z,10.10
2018-02-03T22:58:55.943Z,9.53
2018-02-03T23:01:23.552Z,10.93
2018-02-03T23:03:51.142Z,8.73
2018-02-03T23:06:18.734Z,9.67
2018-02-03T23:08:46.767Z,9.20
2018-02-03T23:11:14.388Z,12.77
2018-02-03T23:13:41.994Z,12.90
2018-02-03T23:16:09.612Z,11.57
2018-02-03T23:18:37.206Z,10.80
2018-02-03T23:21:04.894Z,10.07
2018-02-03T23:23:32.920Z,9.03
2018-02-03T23:26:00.503Z,8.63
2018-02-03T23:28:28.115Z,11.77
2018-02-03T23:30:55.706Z,8.57
2018-02-03T23:33:23.343Z,7.17
2018-02-03T23:35:50.971Z,6.80
2018-02-03T23:38:18.589Z,4.30
2018-02-03T23:40:46.401Z,4.20
2018-02-03T23:43:14.000Z,4.93
2018-02-03T23:45:41.555Z,4.07
2018-02-03T23:48:09.190Z,3.67
2018-02-03T23:50:36.778Z,3.00
2018-02-03T23:53:04.426Z,4.40
2018-02-03T23:55:32.028Z,3.90
2018-02-03T23:57:59.652Z,4.63
